createdAt,value
2022-12-20T00:01:34.714Z,44.03
2022-12-20T00:04:05.695Z,43.70
2022-12-20T00:06:35.577Z,45.00
2022-12-20T00:09:05.175Z,42.80
2022-12-20T00:13:59.608Z,41.92
2022-12-20T00:16:28.427Z,40.50
2022-12-20T00:18:57.959Z,47.63
2022-12-20T00:23:54.025Z,36.72
2022-12-20T00:26:24.305Z,43.90
2022-12-20T00:28:53.390Z,39.00
2022-12-20T00:31:22.157Z,38.85
2022-12-20T00:33:51.441Z,46.78
2022-12-20T00:36:19.476Z,42.30
2022-12-20T00:38:48.054Z,44.78
2022-12-20T00:41:18.513Z,41.28
2022-12-20T00:43:45.782Z,38.13
2022-12-20T00:46:14.592Z,37.10
2022-12-20T00:48:42.112Z,43.53
2022-12-20T00:51:12.223Z,42.35
2022-12-20T00:53:39.749Z,36.85
2022-12-20T00:56:08.183Z,43.03
2022-12-20T00:58:37.743Z,42.47
2022-12-20T01:03:34.395Z,39.05
2022-12-20T01:06:03.342Z,40.35
2022-12-20T01:08:31.687Z,43.30
2022-12-20T01:11:08.282Z,38.63
2022-12-20T01:13:37.394Z,40.90
2022-12-20T01:18:36.558Z,39.22
2022-12-20T01:21:05.907Z,41.22
2022-12-20T01:23:33.201Z,39.10
2022-12-20T01:26:06.100Z,37.47
2022-12-20T01:28:33.380Z,39.80
2022-12-20T01:31:00.458Z,46.15
2022-12-20T01:33:28.231Z,41.88
2022-12-20T01:36:00.906Z,45.22
2022-12-20T01:38:28.843Z,39.80
2022-12-20T01:40:57.709Z,42.15
2022-12-20T01:43:26.286Z,40.65
2022-12-20T01:45:53.375Z,43.03
2022-12-20T01:48:26.354Z,44.83
2022-12-20T01:50:54.184Z,43.65
2022-12-20T01:53:23.656Z,42.47
2022-12-20T01:55:50.898Z,42.65
2022-12-20T01:58:20.064Z,46.22
2022-12-20T02:00:47.952Z,39.47
2022-12-20T02:03:16.944Z,40.58
2022-12-20T02:05:45.959Z,35.03
2022-12-20T02:08:16.376Z,41.70
2022-12-20T02:11:04.487Z,41.05
2022-12-20T02:14:03.608Z,37.60
2022-12-20T02:16:36.705Z,44.75
2022-12-20T02:19:42.934Z,37.67
2022-12-20T02:22:31.017Z,47.47
2022-12-20T02:25:17.106Z,47.40
2022-12-20T02:27:50.087Z,41.42
2022-12-20T02:30:22.822Z,45.85
2022-12-20T02:33:03.898Z,42.88
2022-12-20T02:35:35.499Z,41.03
2022-12-20T02:38:24.957Z,38.38
2022-12-20T02:40:58.102Z,32.30
2022-12-20T02:43:45.765Z,38.40
2022-12-20T02:46:15.078Z,35.20
2022-12-20T02:48:43.166Z,37.42
2022-12-20T02:51:12.030Z,39.95
2022-12-20T02:53:42.696Z,37.75
2022-12-20T02:56:20.054Z,39.40
2022-12-20T02:59:04.358Z,37.40
2022-12-20T03:01:37.910Z,36.60
2022-12-20T03:04:06.837Z,45.33
2022-12-20T03:06:34.286Z,41.97
2022-12-20T03:09:02.205Z,37.63
2022-12-20T03:11:32.150Z,40.25
2022-12-20T03:13:59.234Z,36.17
2022-12-20T03:16:26.224Z,43.63
2022-12-20T03:18:53.447Z,37.13
2022-12-20T03:21:37.851Z,33.35
2022-12-20T03:24:05.082Z,33.08
2022-12-20T03:26:32.439Z,31.27
2022-12-20T03:29:00.887Z,30.05
2022-12-20T03:31:28.741Z,36.75
2022-12-20T03:33:55.970Z,42.90
2022-12-20T03:36:24.229Z,30.70
2022-12-20T03:38:59.223Z,36.47
2022-12-20T03:41:28.283Z,28.88
2022-12-20T03:43:55.308Z,17.88
2022-12-20T03:46:23.398Z,19.45
2022-12-20T03:48:50.794Z,18.98
2022-12-20T03:51:17.891Z,18.33
2022-12-20T03:53:45.506Z,13.77
2022-12-20T03:56:14.202Z,17.05
2022-12-20T03:58:42.784Z,28.15
2022-12-20T04:01:20.618Z,19.52
2022-12-20T04:03:48.379Z,24.30
2022-12-20T04:06:16.101Z,21.08
2022-12-20T04:08:43.367Z,20.00
2022-12-20T04:11:17.944Z,17.57
2022-12-20T04:13:52.885Z,20.52
2022-12-20T04:16:27.850Z,20.30
2022-12-20T04:18:55.737Z,18.23
2022-12-20T04:21:29.012Z,21.95
2022-12-20T04:23:59.229Z,15.77
2022-12-20T04:26:35.294Z,15.93
2022-12-20T04:29:04.107Z,15.32
2022-12-20T04:31:32.199Z,16.38
2022-12-20T04:34:00.330Z,17.05
2022-12-20T04:36:28.793Z,30.70
2022-12-20T04:38:57.384Z,51.30
2022-12-20T04:41:24.536Z,29.77
2022-12-20T04:43:58.373Z,23.88
2022-12-20T04:46:33.637Z,21.33
2022-12-20T04:49:01.712Z,23.52
2022-12-20T04:51:31.662Z,24.08
2022-12-20T04:53:59.146Z,28.70
2022-12-20T04:56:41.090Z,26.15
2022-12-20T05:01:41.701Z,26.90
2022-12-20T05:04:09.292Z,28.75
2022-12-20T05:06:37.597Z,27.00
2022-12-20T05:09:04.789Z,29.38
2022-12-20T05:11:33.342Z,26.10
2022-12-20T05:14:01.323Z,24.33
2022-12-20T05:16:28.485Z,26.35
2022-12-20T05:18:55.861Z,26.00
2022-12-20T05:21:41.360Z,26.48
2022-12-20T05:24:28.695Z,25.92
2022-12-20T05:27:19.606Z,42.72
2022-12-20T05:29:47.331Z,42.95
2022-12-20T05:32:15.017Z,38.25
2022-12-20T05:37:10.917Z,24.27
2022-12-20T05:39:39.978Z,27.40
2022-12-20T05:42:13.249Z,27.52
2022-12-20T05:44:40.180Z,32.70
2022-12-20T05:47:07.279Z,30.95
2022-12-20T05:49:36.355Z,25.75
2022-12-20T05:52:06.207Z,28.63
2022-12-20T05:54:34.894Z,24.77
2022-12-20T05:57:16.907Z,26.88
2022-12-20T05:59:44.445Z,29.73
2022-12-20T06:02:21.523Z,25.35
2022-12-20T06:04:52.429Z,24.15
2022-12-20T06:07:22.302Z,25.73
2022-12-20T06:09:53.471Z,25.00
2022-12-20T06:12:25.394Z,25.10
2022-12-20T06:14:53.108Z,26.20
2022-12-20T06:17:21.973Z,24.88
2022-12-20T06:19:49.268Z,26.70
2022-12-20T06:22:17.270Z,25.23
2022-12-20T06:24:56.698Z,32.63
2022-12-20T06:27:27.618Z,21.42
2022-12-20T06:30:06.203Z,26.95
2022-12-20T06:32:45.300Z,26.08
2022-12-20T06:35:13.371Z,29.52
2022-12-20T06:37:41.607Z,28.13
2022-12-20T06:40:11.044Z,31.92
2022-12-20T06:42:38.510Z,29.10
2022-12-20T06:45:07.592Z,26.75
2022-12-20T06:47:35.623Z,33.72
2022-12-20T06:50:04.907Z,34.65
2022-12-20T06:52:32.256Z,36.30
2022-12-20T06:55:00.323Z,28.35
2022-12-20T06:57:27.517Z,27.00
2022-12-20T06:59:55.156Z,32.40
2022-12-20T07:02:24.114Z,26.15
2022-12-20T07:04:54.426Z,30.33
2022-12-20T07:07:21.535Z,32.58
2022-12-20T07:09:48.619Z,27.85
2022-12-20T07:12:16.016Z,30.15
2022-12-20T07:14:43.045Z,25.55
2022-12-20T07:17:10.812Z,25.75
2022-12-20T07:19:37.960Z,26.08
2022-12-20T07:22:05.817Z,26.83
2022-12-20T07:24:33.669Z,27.02
2022-12-20T07:27:01.563Z,30.40
2022-12-20T07:29:29.043Z,26.83
2022-12-20T07:31:56.365Z,24.85
2022-12-20T07:34:23.654Z,24.83
2022-12-20T07:36:50.617Z,28.88
2022-12-20T07:39:18.430Z,25.75
2022-12-20T07:41:48.582Z,25.73
2022-12-20T07:44:17.150Z,28.85
2022-12-20T07:46:44.277Z,25.27
2022-12-20T07:49:11.280Z,29.70
2022-12-20T07:51:49.334Z,29.92
2022-12-20T07:54:21.429Z,29.20
2022-12-20T07:56:53.413Z,27.17
2022-12-20T07:59:25.524Z,25.80
2022-12-20T08:01:52.820Z,25.42
2022-12-20T08:04:25.127Z,27.17
2022-12-20T08:06:55.966Z,26.15
2022-12-20T08:09:25.737Z,22.70
2022-12-20T08:11:53.504Z,26.98
2022-12-20T08:14:21.195Z,28.65
2022-12-20T08:16:48.278Z,26.85
2022-12-20T08:19:15.303Z,26.30
2022-12-20T08:21:42.345Z,27.35
2022-12-20T08:24:09.408Z,27.13
2022-12-20T08:26:41.645Z,26.85
2022-12-20T08:29:09.259Z,32.35
2022-12-20T08:31:44.537Z,33.05
2022-12-20T08:34:16.591Z,28.58
2022-12-20T08:36:43.921Z,43.03
2022-12-20T08:39:11.679Z,43.65
2022-12-20T08:41:38.930Z,44.10
2022-12-20T08:44:06.738Z,28.50
2022-12-20T08:46:34.222Z,31.80
2022-12-20T08:49:01.297Z,29.98
2022-12-20T08:51:29.393Z,34.40
2022-12-20T08:53:56.647Z,27.45
2022-12-20T08:56:24.339Z,30.80
2022-12-20T08:58:51.388Z,36.33
2022-12-20T09:01:20.715Z,29.45
2022-12-20T09:03:49.012Z,32.53
2022-12-20T09:06:22.372Z,31.65
2022-12-20T09:08:50.044Z,32.55
2022-12-20T09:11:20.316Z,28.27
2022-12-20T09:13:49.775Z,32.83
2022-12-20T09:16:22.097Z,28.17
2022-12-20T09:18:54.759Z,27.67
2022-12-20T09:21:24.917Z,28.23
2022-12-20T09:23:53.887Z,29.80
2022-12-20T09:26:22.471Z,27.80
2022-12-20T09:28:49.942Z,45.08
2022-12-20T09:31:22.256Z,51.00
2022-12-20T09:33:49.633Z,54.53
2022-12-20T09:36:19.515Z,37.20
2022-12-20T09:38:47.372Z,43.22
2022-12-20T09:41:35.337Z,38.60
2022-12-20T09:44:16.297Z,35.88
2022-12-20T09:46:44.636Z,29.85
2022-12-20T09:49:17.284Z,28.25
2022-12-20T09:51:44.352Z,30.88
2022-12-20T09:54:21.140Z,28.63
2022-12-20T09:57:28.364Z,26.02
2022-12-20T09:59:58.114Z,26.08
2022-12-20T10:05:56.324Z,24.50
2022-12-20T10:08:45.335Z,26.70
2022-12-20T10:11:48.059Z,22.67
2022-12-20T10:14:36.213Z,25.08
2022-12-20T10:17:10.771Z,23.70
2022-12-20T10:20:00.993Z,21.70
2022-12-20T10:22:40.537Z,27.33
2022-12-20T10:27:48.468Z,31.70
2022-12-20T10:30:18.506Z,29.50
2022-12-20T10:32:47.334Z,30.55
2022-12-20T10:35:44.240Z,23.80
2022-12-20T10:38:12.912Z,28.27
2022-12-20T10:41:20.887Z,23.02
2022-12-20T10:43:49.827Z,23.70
2022-12-20T10:46:17.173Z,24.52
2022-12-20T10:48:47.205Z,24.80
2022-12-20T10:51:18.045Z,27.83
2022-12-20T10:53:59.062Z,29.40
2022-12-20T10:56:36.497Z,33.10
2022-12-20T10:59:34.978Z,24.48
2022-12-20T11:02:03.850Z,26.85
2022-12-20T11:04:36.325Z,31.60
2022-12-20T11:07:22.408Z,28.27
2022-12-20T11:09:57.587Z,22.98
2022-12-20T11:12:24.827Z,30.67
2022-12-20T11:15:12.571Z,24.13
2022-12-20T11:17:48.942Z,28.00
2022-12-20T11:20:26.943Z,28.25
2022-12-20T11:27:15.479Z,27.27
2022-12-20T11:30:01.328Z,24.38
2022-12-20T11:32:48.931Z,31.60
2022-12-20T11:35:29.015Z,27.45
2022-12-20T11:38:10.716Z,26.85
2022-12-20T11:41:28.831Z,30.95
2022-12-20T11:44:36.213Z,26.35
2022-12-20T11:47:29.464Z,24.25
2022-12-20T11:50:04.420Z,25.58
2022-12-20T11:52:41.836Z,29.65
2022-12-20T11:55:20.784Z,29.67
2022-12-20T11:58:18.720Z,26.75
2022-12-20T12:01:03.660Z,22.30
2022-12-20T12:03:39.981Z,28.33
2022-12-20T12:06:12.843Z,39.38
2022-12-20T12:08:47.201Z,40.53
2022-12-20T12:14:31.046Z,45.78
2022-12-20T12:17:05.497Z,43.58
2022-12-20T12:19:37.424Z,44.60
2022-12-20T12:22:12.320Z,42.85
2022-12-20T12:24:44.853Z,44.70
2022-12-20T12:27:23.169Z,40.42
2022-12-20T12:29:50.788Z,29.88
2022-12-20T12:32:30.802Z,31.10
2022-12-20T12:35:11.959Z,27.10
2022-12-20T12:38:03.911Z,34.80
2022-12-20T12:41:21.972Z,28.80
2022-12-20T12:44:18.851Z,30.30
2022-12-20T12:46:52.675Z,25.88
2022-12-20T12:49:22.896Z,31.30
2022-12-20T12:51:53.243Z,27.75
2022-12-20T12:54:28.611Z,24.58
2022-12-20T12:57:17.887Z,19.10
2022-12-20T12:59:48.135Z,21.92
2022-12-20T13:02:15.810Z,23.65
2022-12-20T13:05:02.217Z,26.02
2022-12-20T13:07:32.695Z,23.65
2022-12-20T13:10:20.229Z,22.23
2022-12-20T13:12:50.489Z,21.67
2022-12-20T13:15:20.557Z,24.95
2022-12-20T13:18:12.204Z,20.95
2022-12-20T13:20:39.593Z,20.70
2022-12-20T13:23:10.621Z,19.80
2022-12-20T13:25:48.317Z,20.85
2022-12-20T13:28:24.568Z,20.05
2022-12-20T13:31:04.917Z,20.67
2022-12-20T13:33:43.041Z,21.40
2022-12-20T13:36:10.061Z,23.33
2022-12-20T13:38:48.096Z,24.48
2022-12-20T13:41:36.082Z,26.13
2022-12-20T13:44:15.305Z,20.88
2022-12-20T13:46:48.356Z,20.90
2022-12-20T13:49:29.743Z,26.08
2022-12-20T13:52:25.765Z,21.13
2022-12-20T13:54:57.088Z,44.20
2022-12-20T13:57:33.055Z,36.63
2022-12-20T14:00:07.375Z,21.83
2022-12-20T14:02:41.747Z,23.50
2022-12-20T14:05:27.447Z,20.95
2022-12-20T14:08:08.326Z,23.10
2022-12-20T14:10:36.044Z,23.77
2022-12-20T14:13:03.888Z,25.38
2022-12-20T14:15:33.645Z,26.05
2022-12-20T14:18:26.256Z,22.02
2022-12-20T14:21:01.992Z,24.15
2022-12-20T14:23:50.877Z,21.90
2022-12-20T14:26:24.895Z,19.15
2022-12-20T14:28:55.158Z,23.77
2022-12-20T14:31:33.803Z,22.17
2022-12-20T14:34:07.239Z,22.60
2022-12-20T14:36:35.816Z,23.13
2022-12-20T14:39:26.438Z,22.10
2022-12-20T14:41:59.132Z,23.10
2022-12-20T14:44:29.084Z,24.90
2022-12-20T14:46:58.981Z,23.88
2022-12-20T14:49:37.641Z,22.40
2022-12-20T14:52:18.236Z,26.55
2022-12-20T14:55:08.803Z,29.98
2022-12-20T14:57:37.127Z,49.40
2022-12-20T15:00:27.842Z,71.00
2022-12-20T15:03:03.289Z,38.70
2022-12-20T15:05:40.047Z,23.40
2022-12-20T15:08:22.626Z,19.73
2022-12-20T15:11:01.252Z,27.70
2022-12-20T15:13:34.608Z,20.60
2022-12-20T15:16:04.827Z,26.65
2022-12-20T15:18:32.190Z,28.95
2022-12-20T15:21:05.691Z,41.13
2022-12-20T15:23:32.976Z,24.00
2022-12-20T15:25:59.978Z,24.40
2022-12-20T15:29:40.215Z,21.90
2022-12-20T15:32:15.816Z,21.42
2022-12-20T15:34:43.410Z,26.77
2022-12-20T15:37:18.316Z,32.85
2022-12-20T15:39:46.741Z,25.25
2022-12-20T15:42:17.612Z,30.90
2022-12-20T15:44:45.428Z,33.05
2022-12-20T15:47:17.283Z,36.58
2022-12-20T15:49:49.877Z,29.55
2022-12-20T15:52:22.398Z,25.40
2022-12-20T15:54:50.307Z,22.58
2022-12-20T15:57:17.333Z,24.52
2022-12-20T16:00:02.205Z,25.27
2022-12-20T16:02:38.698Z,23.02
2022-12-20T16:05:06.364Z,23.55
2022-12-20T16:07:33.636Z,27.88
2022-12-20T16:10:01.526Z,32.97
2022-12-20T16:12:35.907Z,35.00
2022-12-20T16:15:03.483Z,31.35
2022-12-20T16:17:35.699Z,38.22
2022-12-20T16:20:02.722Z,28.27
2022-12-20T16:22:29.698Z,27.63
2022-12-20T16:24:56.720Z,28.65
2022-12-20T16:27:23.790Z,23.10
2022-12-20T16:29:50.775Z,29.48
2022-12-20T16:32:20.376Z,28.00
2022-12-20T16:34:49.411Z,34.35
2022-12-20T16:37:18.681Z,31.33
2022-12-20T16:39:47.573Z,24.13
2022-12-20T16:42:22.461Z,27.00
2022-12-20T16:44:54.637Z,25.58
2022-12-20T16:47:22.138Z,23.05
2022-12-20T16:49:52.903Z,23.27
2022-12-20T16:52:22.688Z,22.70
2022-12-20T16:54:50.197Z,25.17
2022-12-20T16:57:17.232Z,25.98
2022-12-20T16:59:44.785Z,31.23
2022-12-20T17:02:27.439Z,25.17
2022-12-20T17:04:54.679Z,24.73
2022-12-20T17:07:22.668Z,26.38
2022-12-20T17:12:34.571Z,23.20
2022-12-20T17:15:01.558Z,20.70
2022-12-20T17:17:28.525Z,19.88
2022-12-20T17:19:55.510Z,19.65
2022-12-20T17:25:11.885Z,20.95
2022-12-20T17:27:38.871Z,18.90
2022-12-20T17:30:06.655Z,27.02
2022-12-20T17:32:33.649Z,22.85
2022-12-20T17:35:00.519Z,22.83
2022-12-20T17:37:27.966Z,39.47
2022-12-20T17:39:54.921Z,51.60
2022-12-20T17:42:27.037Z,38.03
2022-12-20T17:44:57.783Z,26.48
2022-12-20T17:47:24.758Z,22.25
2022-12-20T17:49:52.426Z,24.85
2022-12-20T17:52:21.699Z,23.70
2022-12-20T17:54:48.848Z,26.80
2022-12-20T17:57:16.748Z,26.27
2022-12-20T17:59:44.215Z,33.78
2022-12-20T18:02:30.271Z,25.33
2022-12-20T18:04:57.736Z,21.85
2022-12-20T18:07:24.703Z,21.25
2022-12-20T18:09:51.653Z,22.42
2022-12-20T18:12:18.694Z,18.92
2022-12-20T18:14:48.007Z,22.70
2022-12-20T18:17:15.102Z,19.45
2022-12-20T18:19:43.915Z,17.48
2022-12-20T18:22:11.035Z,18.40
2022-12-20T18:24:37.958Z,18.25
2022-12-20T18:27:04.977Z,25.17
2022-12-20T18:29:31.997Z,21.60
2022-12-20T18:31:59.078Z,17.80
2022-12-20T18:34:26.136Z,20.30
2022-12-20T18:36:53.139Z,23.67
2022-12-20T18:39:20.152Z,19.67
2022-12-20T18:41:48.538Z,24.58
2022-12-20T18:44:15.569Z,25.67
2022-12-20T18:46:42.553Z,21.88
2022-12-20T18:49:09.697Z,21.20
2022-12-20T18:51:37.240Z,21.35
2022-12-20T18:54:06.136Z,18.52
2022-12-20T18:56:35.535Z,22.17
2022-12-20T18:59:10.797Z,29.55
2022-12-20T19:01:40.442Z,25.70
2022-12-20T19:04:08.698Z,22.65
2022-12-20T19:06:36.610Z,20.52
2022-12-20T19:09:06.298Z,20.02
2022-12-20T19:14:01.052Z,20.40
2022-12-20T19:16:31.949Z,25.80
2022-12-20T19:19:00.639Z,29.15
2022-12-20T19:21:30.522Z,13.82
2022-12-20T19:24:00.539Z,25.98
2022-12-20T19:26:28.652Z,29.27
2022-12-20T19:28:56.591Z,36.25
2022-12-20T19:31:26.201Z,33.45
2022-12-20T19:36:27.427Z,30.30
2022-12-20T19:38:56.984Z,26.83
2022-12-20T19:41:26.997Z,22.42
2022-12-20T19:43:54.254Z,22.45
2022-12-20T19:46:28.095Z,14.75
2022-12-20T19:48:56.168Z,12.90
2022-12-20T19:51:23.950Z,11.95
2022-12-20T19:53:53.674Z,15.60
2022-12-20T19:56:23.499Z,9.27
2022-12-20T20:01:19.244Z,7.05
2022-12-20T20:03:46.354Z,10.73
2022-12-20T20:06:13.499Z,14.00
2022-12-20T20:08:41.524Z,8.50
2022-12-20T20:11:10.423Z,7.60
2022-12-20T20:13:38.662Z,6.65
2022-12-20T20:16:07.143Z,5.75
2022-12-20T20:18:36.151Z,8.35
2022-12-20T20:21:08.995Z,6.57
2022-12-20T20:23:37.666Z,7.82
2022-12-20T20:26:10.603Z,9.48
2022-12-20T20:28:44.407Z,7.10
2022-12-20T20:31:17.268Z,6.90
2022-12-20T20:33:44.626Z,11.05
2022-12-20T20:36:17.396Z,6.40
2022-12-20T20:38:45.776Z,7.50
2022-12-20T20:41:14.199Z,6.20
2022-12-20T20:43:41.724Z,9.52
2022-12-20T20:46:11.653Z,14.95
2022-12-20T20:48:39.253Z,15.52
2022-12-20T20:51:06.750Z,18.90
2022-12-20T20:53:34.496Z,18.30
2022-12-20T20:56:06.123Z,19.40
2022-12-20T20:58:34.355Z,11.13
2022-12-20T21:01:08.569Z,9.77
2022-12-20T21:03:36.783Z,10.65
2022-12-20T21:08:53.683Z,10.57
2022-12-20T21:11:20.998Z,13.13
2022-12-20T21:13:48.128Z,13.43
2022-12-20T21:16:22.359Z,11.35
2022-12-20T21:18:54.063Z,8.43
2022-12-20T21:21:21.981Z,9.95
2022-12-20T21:23:49.729Z,7.45
2022-12-20T21:26:18.490Z,8.23
2022-12-20T21:28:46.074Z,6.40
2022-12-20T21:31:15.736Z,8.02
2022-12-20T21:36:20.330Z,8.95
2022-12-20T21:38:55.730Z,5.97
2022-12-20T21:41:24.955Z,9.15
2022-12-20T21:43:55.459Z,11.48
2022-12-20T21:46:22.757Z,6.60
2022-12-20T21:48:49.813Z,8.55
2022-12-20T21:51:20.289Z,7.82
2022-12-20T21:53:52.500Z,6.00
2022-12-20T21:56:21.057Z,10.35
2022-12-20T21:58:48.318Z,7.85
2022-12-20T22:01:19.272Z,8.35
2022-12-20T22:03:50.882Z,11.80
2022-12-20T22:06:18.220Z,9.63
2022-12-20T22:08:45.865Z,6.97
2022-12-20T22:11:16.691Z,8.30
2022-12-20T22:13:44.930Z,8.65
2022-12-20T22:16:22.381Z,8.75
2022-12-20T22:18:52.380Z,7.15
2022-12-20T22:22:01.557Z,11.95
2022-12-20T22:24:29.051Z,8.43
2022-12-20T22:26:56.115Z,10.48
2022-12-20T22:29:23.339Z,10.90
2022-12-20T22:31:50.981Z,9.23
2022-12-20T22:34:18.068Z,8.48
2022-12-20T22:36:45.492Z,6.90
2022-12-20T22:39:14.523Z,7.43
2022-12-20T22:41:42.138Z,6.72
2022-12-20T22:44:09.250Z,6.72
2022-12-20T22:46:36.586Z,7.72
2022-12-20T22:49:03.987Z,8.93
2022-12-20T22:51:33.574Z,6.20
2022-12-20T22:56:28.265Z,7.18
2022-12-20T22:59:34.794Z,7.10
2022-12-20T23:02:02.025Z,5.70
2022-12-20T23:04:29.122Z,5.82
2022-12-20T23:06:56.151Z,5.03
2022-12-20T23:09:27.101Z,6.97
2022-12-20T23:12:12.500Z,6.47
2022-12-20T23:15:03.578Z,4.55
2022-12-20T23:17:33.075Z,7.05
2022-12-20T23:20:18.433Z,6.70
2022-12-20T23:22:45.959Z,6.20
2022-12-20T23:25:18.739Z,4.93
2022-12-20T23:27:48.214Z,8.93
2022-12-20T23:30:18.192Z,6.47
2022-12-20T23:32:45.511Z,4.53
2022-12-20T23:35:15.420Z,7.45
2022-12-20T23:37:42.804Z,4.15
2022-12-20T23:40:10.905Z,6.30
2022-12-20T23:42:38.468Z,6.53
2022-12-20T23:45:05.757Z,6.97
2022-12-20T23:47:33.140Z,7.78
2022-12-20T23:50:00.116Z,5.00
2022-12-20T23:52:27.211Z,5.57
2022-12-20T23:54:54.167Z,5.85
2022-12-20T23:57:21.154Z,6.07
2022-12-20T23:59:48.129Z,6.60
